createdAt,value
2023-01-21T00:00:58.736Z,1.36
2023-01-21T00:03:25.390Z,1.39
2023-01-21T00:05:52.146Z,1.26
2023-01-21T00:08:18.705Z,1.37
2023-01-21T00:10:45.434Z,1.40
2023-01-21T00:13:11.959Z,1.36
2023-01-21T00:15:38.627Z,1.39
2023-01-21T00:18:05.251Z,1.37
2023-01-21T00:20:31.880Z,1.54
2023-01-21T00:22:58.432Z,1.41
2023-01-21T00:25:25.188Z,1.49
2023-01-21T00:27:51.917Z,1.44
2023-01-21T00:30:18.841Z,1.52
2023-01-21T00:32:45.717Z,1.53
2023-01-21T00:35:12.561Z,1.55
2023-01-21T00:37:39.102Z,1.50
2023-01-21T00:40:06.815Z,1.55
2023-01-21T00:42:33.577Z,1.43
2023-01-21T00:45:00.586Z,1.48
2023-01-21T00:47:28.348Z,1.27
2023-01-21T00:49:54.899Z,1.40
2023-01-21T00:52:21.427Z,1.39
2023-01-21T00:54:47.973Z,1.36
2023-01-21T00:57:14.573Z,1.43
2023-01-21T00:59:41.316Z,1.51
2023-01-21T01:02:08.994Z,1.43
2023-01-21T01:04:36.135Z,1.38
2023-01-21T01:07:02.786Z,1.30
2023-01-21T01:09:29.915Z,1.26
2023-01-21T01:11:56.468Z,1.11
2023-01-21T01:14:23.520Z,1.16
2023-01-21T01:16:50.284Z,1.16
2023-01-21T01:19:17.156Z,1.14
2023-01-21T01:21:43.726Z,1.14
2023-01-21T01:24:10.363Z,1.16
2023-01-21T01:26:36.931Z,1.12
2023-01-21T01:29:04.465Z,1.06
2023-01-21T01:31:31.035Z,1.08
2023-01-21T01:33:57.790Z,0.86
2023-01-21T01:36:24.908Z,0.87
2023-01-21T01:38:52.555Z,1.02
2023-01-21T01:41:22.576Z,0.87
2023-01-21T01:43:55.413Z,0.76
2023-01-21T01:46:23.332Z,0.70
2023-01-21T01:48:55.673Z,0.63
2023-01-21T01:51:26.852Z,0.58
2023-01-21T01:53:53.562Z,0.57
2023-01-21T01:56:20.589Z,0.56
2023-01-21T01:58:47.176Z,0.52
2023-01-21T02:01:14.010Z,0.46
2023-01-21T02:03:44.971Z,0.38
2023-01-21T02:06:13.131Z,0.37
2023-01-21T02:08:40.118Z,0.45
2023-01-21T02:11:11.282Z,0.34
2023-01-21T02:13:37.899Z,0.31
2023-01-21T02:16:07.415Z,0.34
2023-01-21T02:18:48.298Z,0.26
2023-01-21T02:21:39.739Z,0.20
2023-01-21T02:24:21.399Z,0.02
2023-01-21T02:27:19.120Z,-0.04
2023-01-21T02:29:55.317Z,-0.10
2023-01-21T02:32:53.809Z,0.04
2023-01-21T02:35:26.937Z,-0.10
2023-01-21T02:38:02.624Z,-0.09
2023-01-21T02:41:01.573Z,-0.16
2023-01-21T02:43:35.154Z,-0.10
2023-01-21T02:46:27.759Z,-0.10
2023-01-21T02:49:00.834Z,-0.03
2023-01-21T02:51:29.696Z,-0.06
2023-01-21T02:53:56.325Z,-0.08
2023-01-21T02:56:25.381Z,-0.17
2023-01-21T02:59:02.940Z,-0.10
2023-01-21T03:01:32.598Z,-0.09
2023-01-21T03:04:22.072Z,-0.07
2023-01-21T03:06:54.552Z,-0.36
2023-01-21T03:09:26.408Z,-0.25
2023-01-21T03:12:00.787Z,-0.23
2023-01-21T03:14:51.259Z,-0.32
2023-01-21T03:17:41.688Z,-0.24
2023-01-21T03:20:10.602Z,-0.27
2023-01-21T03:22:37.771Z,-0.36
2023-01-21T03:25:07.088Z,-0.42
2023-01-21T03:27:35.320Z,-0.47
2023-01-21T03:30:18.376Z,-0.43
2023-01-21T03:32:48.301Z,-0.40
2023-01-21T03:35:21.746Z,-0.46
2023-01-21T03:38:04.474Z,-0.54
2023-01-21T03:40:35.234Z,-0.60
2023-01-21T03:43:02.579Z,-0.52
2023-01-21T03:45:58.918Z,-0.51
2023-01-21T03:48:33.340Z,-0.61
2023-01-21T03:51:03.984Z,-0.56
2023-01-21T03:53:30.665Z,-0.70
2023-01-21T03:55:59.156Z,-0.70
2023-01-21T03:58:26.115Z,-0.68
2023-01-21T04:00:52.750Z,-0.54
2023-01-21T04:03:19.311Z,-0.57
2023-01-21T04:05:45.958Z,-0.56
2023-01-21T04:08:12.486Z,-0.62
2023-01-21T04:10:39.048Z,-0.53
2023-01-21T04:13:05.568Z,-0.54
2023-01-21T04:15:32.239Z,-0.47
2023-01-21T04:17:58.802Z,-0.48
2023-01-21T04:20:25.401Z,-0.54
2023-01-21T04:22:51.930Z,-0.61
2023-01-21T04:25:18.693Z,-0.53
2023-01-21T04:27:45.645Z,-0.66
2023-01-21T04:30:12.338Z,-0.90
2023-01-21T04:32:38.916Z,-0.94
2023-01-21T04:35:05.833Z,-0.86
2023-01-21T04:37:32.398Z,-0.77
2023-01-21T04:39:59.085Z,-0.81
2023-01-21T04:42:25.647Z,-0.70
2023-01-21T04:44:52.205Z,-0.80
2023-01-21T04:47:18.849Z,-1.11
2023-01-21T04:49:46.698Z,-0.90
2023-01-21T04:52:13.243Z,-0.78
2023-01-21T04:54:39.791Z,-0.80
2023-01-21T04:57:06.401Z,-0.90
2023-01-21T04:59:33.000Z,-0.75
2023-01-21T05:01:59.617Z,-0.81
2023-01-21T05:04:26.189Z,-0.90
2023-01-21T05:06:52.799Z,-0.88
2023-01-21T05:09:19.372Z,-0.95
2023-01-21T05:11:46.053Z,-1.06
2023-01-21T05:14:12.654Z,-1.06
2023-01-21T05:16:39.236Z,-0.93
2023-01-21T05:19:05.868Z,-0.92
2023-01-21T05:21:32.417Z,-0.94
2023-01-21T05:23:58.935Z,-1.02
2023-01-21T05:26:25.497Z,-1.03
2023-01-21T05:28:52.461Z,-1.10
2023-01-21T05:31:19.143Z,-1.45
2023-01-21T05:33:47.194Z,-1.17
2023-01-21T05:36:13.759Z,-1.43
2023-01-21T05:38:40.296Z,-1.38
2023-01-21T05:41:06.852Z,-1.37
2023-01-21T05:43:36.339Z,-1.30
2023-01-21T05:46:02.902Z,-1.55
2023-01-21T05:48:29.842Z,-1.45
2023-01-21T05:50:58.398Z,-1.51
2023-01-21T05:53:25.579Z,-1.35
2023-01-21T05:55:53.521Z,-1.49
2023-01-21T05:58:20.792Z,-1.50
2023-01-21T06:00:48.487Z,-1.14
2023-01-21T06:03:16.447Z,-1.33
2023-01-21T06:05:43.313Z,-1.06
2023-01-21T06:08:10.983Z,-1.23
2023-01-21T06:10:37.551Z,-1.21
2023-01-21T06:13:04.094Z,-1.26
2023-01-21T06:15:33.606Z,-1.21
2023-01-21T06:18:01.166Z,-0.97
2023-01-21T06:20:30.775Z,-1.06
2023-01-21T06:22:57.886Z,-0.94
2023-01-21T06:25:25.607Z,-0.98
2023-01-21T06:27:55.216Z,-1.30
2023-01-21T06:30:22.261Z,-1.17
2023-01-21T06:32:48.867Z,-1.04
2023-01-21T06:35:15.538Z,-1.12
2023-01-21T06:37:42.460Z,-1.00
2023-01-21T06:40:10.604Z,-1.22
2023-01-21T06:42:37.128Z,-1.08
2023-01-21T06:45:04.216Z,-1.15
2023-01-21T06:47:31.089Z,-1.35
2023-01-21T06:49:57.643Z,-1.24
2023-01-21T06:52:24.662Z,-1.24
2023-01-21T06:54:51.518Z,-1.01
2023-01-21T06:57:18.290Z,-1.15
2023-01-21T06:59:45.215Z,-0.97
2023-01-21T07:02:13.038Z,-0.94
2023-01-21T07:04:39.656Z,-0.84
2023-01-21T07:07:06.415Z,-0.80
2023-01-21T07:09:33.977Z,-0.81
2023-01-21T07:12:00.651Z,-0.80
2023-01-21T07:14:27.757Z,-0.87
2023-01-21T07:16:54.940Z,-0.86
2023-01-21T07:19:21.673Z,-0.90
2023-01-21T07:21:51.221Z,-0.73
2023-01-21T07:24:18.120Z,-0.54
2023-01-21T07:26:45.055Z,-0.26
2023-01-21T07:29:12.714Z,-0.28
2023-01-21T07:31:43.486Z,-0.12
2023-01-21T07:34:11.732Z,-0.06
2023-01-21T07:36:38.262Z,-0.19
2023-01-21T07:39:05.310Z,-0.39
2023-01-21T07:41:38.284Z,-0.50
2023-01-21T07:44:16.521Z,-0.61
2023-01-21T07:46:43.118Z,-0.44
2023-01-21T07:49:13.190Z,-0.15
2023-01-21T07:51:40.908Z,-0.21
2023-01-21T07:54:08.408Z,-0.19
2023-01-21T07:56:35.993Z,0.06
2023-01-21T07:59:02.599Z,-0.10
2023-01-21T08:01:31.100Z,0.03
2023-01-21T08:03:58.779Z,-0.06
2023-01-21T08:06:25.608Z,0.08
2023-01-21T08:08:52.170Z,0.11
2023-01-21T08:11:18.740Z,0.06
2023-01-21T08:13:45.424Z,-0.11
2023-01-21T08:16:13.594Z,-0.20
2023-01-21T08:18:40.494Z,-0.22
2023-01-21T08:21:07.062Z,0.07
2023-01-21T08:23:33.703Z,-0.37
2023-01-21T08:26:04.386Z,-0.54
2023-01-21T08:28:31.038Z,-0.74
2023-01-21T08:31:08.129Z,-0.37
2023-01-21T08:33:35.450Z,-0.43
2023-01-21T08:36:03.426Z,-0.38
2023-01-21T08:38:29.932Z,0.04
2023-01-21T08:40:58.264Z,0.12
2023-01-21T08:43:25.368Z,-0.16
2023-01-21T08:45:52.484Z,0.10
2023-01-21T08:48:19.090Z,0.11
2023-01-21T08:50:45.619Z,0.17
2023-01-21T08:53:12.195Z,0.46
2023-01-21T08:55:38.813Z,0.44
2023-01-21T08:58:05.379Z,0.34
2023-01-21T09:00:32.856Z,0.43
2023-01-21T09:03:05.265Z,0.39
2023-01-21T09:05:31.917Z,0.37
2023-01-21T09:07:58.596Z,0.24
2023-01-21T09:10:43.934Z,0.40
2023-01-21T09:13:11.202Z,0.50
2023-01-21T09:15:43.582Z,0.52
2023-01-21T09:18:10.159Z,0.56
2023-01-21T09:20:37.248Z,0.61
2023-01-21T09:23:24.053Z,0.51
2023-01-21T09:26:17.934Z,0.61
2023-01-21T09:28:46.513Z,0.64
2023-01-21T09:31:15.265Z,0.78
2023-01-21T09:33:44.631Z,0.83
2023-01-21T09:36:16.864Z,0.82
2023-01-21T09:38:44.587Z,0.92
2023-01-21T09:41:29.054Z,1.24
2023-01-21T09:44:01.266Z,1.30
2023-01-21T09:46:49.089Z,1.35
2023-01-21T09:49:24.065Z,1.17
2023-01-21T09:52:22.643Z,1.07
2023-01-21T09:54:49.309Z,1.27
2023-01-21T09:57:27.993Z,1.22
2023-01-21T10:00:05.527Z,1.25
2023-01-21T10:02:57.839Z,1.41
2023-01-21T10:05:24.540Z,1.68
2023-01-21T10:08:07.890Z,1.36
2023-01-21T10:11:03.364Z,1.01
2023-01-21T10:13:55.049Z,1.44
2023-01-21T10:16:44.721Z,1.37
2023-01-21T10:19:23.056Z,1.05
2023-01-21T10:21:53.785Z,1.17
2023-01-21T10:24:38.754Z,1.47
2023-01-21T10:27:05.482Z,1.14
2023-01-21T10:29:32.327Z,1.35
2023-01-21T10:32:07.749Z,1.07
2023-01-21T10:34:39.942Z,0.73
2023-01-21T10:37:21.711Z,1.19
2023-01-21T10:40:17.552Z,1.60
2023-01-21T10:42:59.417Z,1.72
2023-01-21T10:45:57.906Z,1.44
2023-01-21T10:48:33.663Z,1.60
2023-01-21T10:51:13.050Z,1.49
2023-01-21T10:53:54.468Z,1.99
2023-01-21T10:56:34.353Z,1.68
2023-01-21T10:59:06.461Z,1.43
2023-01-21T11:01:40.737Z,1.18
2023-01-21T11:04:13.217Z,1.19
2023-01-21T11:06:40.570Z,1.22
2023-01-21T11:09:09.630Z,1.55
2023-01-21T11:11:37.472Z,1.83
2023-01-21T11:14:04.157Z,1.70
2023-01-21T11:16:37.265Z,1.05
2023-01-21T11:19:05.792Z,1.06
2023-01-21T11:21:32.539Z,1.68
2023-01-21T11:24:00.968Z,1.57
2023-01-21T11:26:32.600Z,1.45
2023-01-21T11:29:10.252Z,1.26
2023-01-21T11:31:37.124Z,1.73
2023-01-21T11:34:14.631Z,1.77
2023-01-21T11:37:01.517Z,1.74
2023-01-21T11:39:33.612Z,1.65
2023-01-21T11:42:12.171Z,2.03
2023-01-21T11:44:51.033Z,1.83
2023-01-21T11:47:38.878Z,1.66
2023-01-21T11:50:11.847Z,1.91
2023-01-21T11:52:38.430Z,1.81
2023-01-21T11:55:17.718Z,1.73
2023-01-21T11:57:49.632Z,1.06
2023-01-21T12:00:21.433Z,1.62
2023-01-21T12:02:55.149Z,1.10
2023-01-21T12:05:41.266Z,1.28
2023-01-21T12:08:08.101Z,0.97
2023-01-21T12:10:43.661Z,1.33
2023-01-21T12:13:34.640Z,0.93
2023-01-21T12:16:48.916Z,1.22
2023-01-21T12:19:24.724Z,1.38
2023-01-21T12:22:20.520Z,1.27
2023-01-21T12:24:56.573Z,1.52
2023-01-21T12:27:46.495Z,1.25
2023-01-21T12:30:51.410Z,1.23
2023-01-21T12:33:29.789Z,1.29
2023-01-21T12:35:59.113Z,1.32
2023-01-21T12:38:30.329Z,0.68
2023-01-21T12:41:08.944Z,1.15
2023-01-21T12:43:38.373Z,1.13
2023-01-21T12:46:15.416Z,1.02
2023-01-21T12:48:45.607Z,0.99
2023-01-21T12:51:19.162Z,1.10
2023-01-21T12:54:08.498Z,0.89
2023-01-21T12:56:41.012Z,0.80
2023-01-21T12:59:07.571Z,1.04
2023-01-21T13:01:57.344Z,1.00
2023-01-21T13:04:23.820Z,0.76
2023-01-21T13:06:56.528Z,1.15
2023-01-21T13:09:47.402Z,1.15
2023-01-21T13:12:22.760Z,1.19
2023-01-21T13:15:05.003Z,0.75
2023-01-21T13:17:34.339Z,0.48
2023-01-21T13:20:01.027Z,1.03
2023-01-21T13:22:42.899Z,1.10
2023-01-21T13:25:18.480Z,1.06
2023-01-21T13:27:55.728Z,1.07
2023-01-21T13:30:41.271Z,1.28
2023-01-21T13:33:23.881Z,1.26
2023-01-21T13:36:04.989Z,1.29
2023-01-21T13:38:40.302Z,1.14
2023-01-21T13:41:23.047Z,0.80
2023-01-21T13:44:08.467Z,1.04
2023-01-21T13:47:08.967Z,1.07
2023-01-21T13:50:03.723Z,1.32
2023-01-21T13:53:01.042Z,1.57
2023-01-21T13:55:45.019Z,1.23
2023-01-21T13:58:15.759Z,1.42
2023-01-21T14:01:31.713Z,1.02
2023-01-21T14:04:24.329Z,1.22
2023-01-21T14:07:04.077Z,1.06
2023-01-21T14:09:52.732Z,1.17
2023-01-21T14:12:22.378Z,0.79
2023-01-21T14:14:54.653Z,0.95
2023-01-21T14:17:43.519Z,1.15
2023-01-21T14:20:19.359Z,1.43
2023-01-21T14:23:14.191Z,0.95
2023-01-21T14:26:05.692Z,0.95
2023-01-21T14:28:47.855Z,0.94
2023-01-21T14:31:18.506Z,0.68
2023-01-21T14:34:05.312Z,1.05
2023-01-21T14:36:44.175Z,0.84
2023-01-21T14:39:19.757Z,0.99
2023-01-21T14:42:06.138Z,1.02
2023-01-21T14:45:02.267Z,0.76
2023-01-21T14:47:28.714Z,0.47
2023-01-21T14:49:56.652Z,0.84
2023-01-21T14:52:33.635Z,0.51
2023-01-21T14:55:00.465Z,0.73
2023-01-21T14:57:30.029Z,0.90
2023-01-21T15:00:20.761Z,0.71
2023-01-21T15:02:52.273Z,0.69
2023-01-21T15:05:32.771Z,0.58
2023-01-21T15:08:20.082Z,1.01
2023-01-21T15:10:53.166Z,0.60
2023-01-21T15:13:33.009Z,0.56
2023-01-21T15:16:05.526Z,0.94
2023-01-21T15:18:40.828Z,1.31
2023-01-21T15:21:36.585Z,0.70
2023-01-21T15:24:18.365Z,0.48
2023-01-21T15:27:19.240Z,0.89
2023-01-21T15:29:54.677Z,0.68
2023-01-21T15:32:31.901Z,0.90
2023-01-21T15:35:18.688Z,1.18
2023-01-21T15:37:47.362Z,0.95
2023-01-21T15:40:38.386Z,1.09
2023-01-21T15:43:29.887Z,1.06
2023-01-21T15:46:02.528Z,0.95
2023-01-21T15:48:56.771Z,0.80
2023-01-21T15:51:32.396Z,0.87
2023-01-21T15:54:17.355Z,1.44
2023-01-21T15:57:13.513Z,1.37
2023-01-21T15:59:58.493Z,0.90
2023-01-21T16:02:31.745Z,1.07
2023-01-21T16:05:35.795Z,0.87
2023-01-21T16:08:26.403Z,0.70
2023-01-21T16:11:07.533Z,1.15
2023-01-21T16:13:43.713Z,1.10
2023-01-21T16:16:19.914Z,1.28
2023-01-21T16:19:00.366Z,1.52
2023-01-21T16:21:33.859Z,1.15
2023-01-21T16:24:07.070Z,0.92
2023-01-21T16:26:33.744Z,1.43
2023-01-21T16:29:00.406Z,1.25
2023-01-21T16:31:27.068Z,1.38
2023-01-21T16:33:53.913Z,1.39
2023-01-21T16:36:20.565Z,1.51
2023-01-21T16:38:47.572Z,1.27
2023-01-21T16:41:14.380Z,1.11
2023-01-21T16:43:49.579Z,1.47
2023-01-21T16:46:17.838Z,1.21
2023-01-21T16:48:49.162Z,1.08
2023-01-21T16:51:20.970Z,0.76
2023-01-21T16:53:47.534Z,0.87
2023-01-21T16:56:30.105Z,0.83
2023-01-21T16:58:57.318Z,0.81
2023-01-21T17:01:26.464Z,0.73
2023-01-21T17:03:53.187Z,0.84
2023-01-21T17:06:27.027Z,0.92
2023-01-21T17:09:00.803Z,1.04
2023-01-21T17:11:27.928Z,0.80
2023-01-21T17:13:54.760Z,1.21
2023-01-21T17:16:30.046Z,0.98
2023-01-21T17:19:08.246Z,1.00
2023-01-21T17:21:43.554Z,1.12
2023-01-21T17:24:19.986Z,0.69
2023-01-21T17:26:49.660Z,0.87
2023-01-21T17:29:30.868Z,0.39
2023-01-21T17:32:02.984Z,0.72
2023-01-21T17:34:31.601Z,0.63
2023-01-21T17:36:58.444Z,0.95
2023-01-21T17:39:49.165Z,0.56
2023-01-21T17:42:20.915Z,0.96
2023-01-21T17:44:48.677Z,0.92
2023-01-21T17:47:26.309Z,1.05
2023-01-21T17:50:19.965Z,1.18
2023-01-21T17:53:03.630Z,1.32
2023-01-21T17:55:33.152Z,1.05
2023-01-21T17:58:04.607Z,1.25
2023-01-21T18:00:43.333Z,1.34
2023-01-21T18:03:12.845Z,1.05
2023-01-21T18:05:41.033Z,0.78
2023-01-21T18:08:14.954Z,1.47
2023-01-21T18:10:41.985Z,1.12
2023-01-21T18:13:17.120Z,1.13
2023-01-21T18:15:44.312Z,1.19
2023-01-21T18:18:16.662Z,1.28
2023-01-21T18:20:43.659Z,1.14
2023-01-21T18:23:11.235Z,1.15
2023-01-21T18:25:39.599Z,1.47
2023-01-21T18:28:20.273Z,1.40
2023-01-21T18:30:47.353Z,1.51
2023-01-21T18:33:13.962Z,1.24
2023-01-21T18:35:43.982Z,1.04
2023-01-21T18:38:21.460Z,1.24
2023-01-21T18:40:48.191Z,1.23
2023-01-21T18:43:14.742Z,1.08
2023-01-21T18:45:41.334Z,0.68
2023-01-21T18:48:13.720Z,1.07
2023-01-21T18:50:40.311Z,0.99
2023-01-21T18:53:07.916Z,1.33
2023-01-21T18:55:35.152Z,1.30
2023-01-21T18:58:04.143Z,1.24
2023-01-21T19:00:32.619Z,1.05
2023-01-21T19:03:01.607Z,1.02
2023-01-21T19:05:34.049Z,0.85
2023-01-21T19:08:06.103Z,0.76
2023-01-21T19:10:32.644Z,0.98
2023-01-21T19:12:59.192Z,0.96
2023-01-21T19:15:27.823Z,0.79
2023-01-21T19:17:54.747Z,1.01
2023-01-21T19:20:24.354Z,1.35
2023-01-21T19:22:51.876Z,1.11
2023-01-21T19:25:19.180Z,0.99
2023-01-21T19:27:55.967Z,0.96
2023-01-21T19:30:31.548Z,1.02
2023-01-21T19:33:00.649Z,1.18
2023-01-21T19:35:34.082Z,1.24
2023-01-21T19:38:02.680Z,1.07
2023-01-21T19:40:30.338Z,1.19
2023-01-21T19:42:57.142Z,1.23
2023-01-21T19:45:25.522Z,0.87
2023-01-21T19:47:52.988Z,0.88
2023-01-21T19:50:21.731Z,1.24
2023-01-21T19:52:49.964Z,0.85
2023-01-21T19:55:19.209Z,1.02
2023-01-21T19:57:46.548Z,0.94
2023-01-21T20:00:24.955Z,0.99
2023-01-21T20:02:51.603Z,1.03
2023-01-21T20:05:18.781Z,0.76
2023-01-21T20:07:47.092Z,0.97
2023-01-21T20:10:15.451Z,1.14
2023-01-21T20:12:43.955Z,1.02
2023-01-21T20:15:13.280Z,0.78
2023-01-21T20:17:42.649Z,1.15
2023-01-21T20:20:25.078Z,1.15
2023-01-21T20:22:52.108Z,1.11
2023-01-21T20:25:28.351Z,1.18
2023-01-21T20:27:56.997Z,1.04
2023-01-21T20:30:25.908Z,1.08
2023-01-21T20:32:52.944Z,1.08
2023-01-21T20:35:25.298Z,1.11
2023-01-21T20:37:53.170Z,1.13
2023-01-21T20:40:27.906Z,1.16
2023-01-21T20:42:55.619Z,1.47
2023-01-21T20:45:27.099Z,1.27
2023-01-21T20:47:54.815Z,1.41
2023-01-21T20:50:23.552Z,1.29
2023-01-21T20:52:51.719Z,0.98
2023-01-21T20:55:21.266Z,0.99
2023-01-21T20:57:48.305Z,1.31
2023-01-21T21:00:24.023Z,1.37
2023-01-21T21:02:50.628Z,0.98
2023-01-21T21:05:18.594Z,1.19
2023-01-21T21:07:45.465Z,1.06
2023-01-21T21:10:35.185Z,1.40
2023-01-21T21:13:02.867Z,1.28
2023-01-21T21:15:31.593Z,1.39
2023-01-21T21:17:58.669Z,1.47
2023-01-21T21:20:27.642Z,0.99
2023-01-21T21:22:54.490Z,0.93
2023-01-21T21:25:23.504Z,1.16
2023-01-21T21:27:50.455Z,1.18
2023-01-21T21:30:19.869Z,1.17
2023-01-21T21:32:46.550Z,1.09
2023-01-21T21:35:24.049Z,0.79
2023-01-21T21:37:51.693Z,0.72
2023-01-21T21:40:22.665Z,0.41
2023-01-21T21:43:08.367Z,0.74
2023-01-21T21:45:40.837Z,0.84
2023-01-21T21:48:41.894Z,0.64
2023-01-21T21:51:10.773Z,0.63
2023-01-21T21:53:37.908Z,0.87
2023-01-21T21:56:07.102Z,1.04
2023-01-21T21:58:34.143Z,0.92
2023-01-21T22:01:12.407Z,0.78
2023-01-21T22:03:39.591Z,1.08
2023-01-21T22:06:06.936Z,0.97
2023-01-21T22:08:35.249Z,1.10
2023-01-21T22:11:04.061Z,0.70
2023-01-21T22:13:33.141Z,0.93
2023-01-21T22:16:00.798Z,0.80
2023-01-21T22:18:28.990Z,0.65
2023-01-21T22:21:08.627Z,0.71
2023-01-21T22:23:36.468Z,0.55
2023-01-21T22:26:05.479Z,0.65
2023-01-21T22:28:32.222Z,0.61
2023-01-21T22:31:06.481Z,0.50
2023-01-21T22:33:33.846Z,1.00
2023-01-21T22:36:08.057Z,0.66
2023-01-21T22:38:35.421Z,0.93
2023-01-21T22:41:03.113Z,0.65
2023-01-21T22:43:30.755Z,0.48
2023-01-21T22:45:58.624Z,0.68
2023-01-21T22:48:25.925Z,0.89
2023-01-21T22:50:54.434Z,1.09
2023-01-21T22:53:21.803Z,1.07
2023-01-21T22:55:59.424Z,0.56
2023-01-21T22:58:27.083Z,1.01
2023-01-21T23:00:54.308Z,0.79
2023-01-21T23:03:21.284Z,1.00
2023-01-21T23:05:48.938Z,1.16
2023-01-21T23:08:16.703Z,1.08
2023-01-21T23:10:43.999Z,0.99
2023-01-21T23:13:11.715Z,0.84
2023-01-21T23:15:45.691Z,0.96
2023-01-21T23:18:13.719Z,0.78
2023-01-21T23:20:42.121Z,0.62
2023-01-21T23:23:09.914Z,0.09
2023-01-21T23:25:40.807Z,0.80
2023-01-21T23:28:07.621Z,0.63
2023-01-21T23:30:34.523Z,0.67
2023-01-21T23:33:01.421Z,0.62
2023-01-21T23:35:28.372Z,0.80
2023-01-21T23:37:54.943Z,0.68
2023-01-21T23:40:21.501Z,1.02
2023-01-21T23:42:48.364Z,0.68
2023-01-21T23:45:14.914Z,1.00
2023-01-21T23:47:41.449Z,0.93
2023-01-21T23:50:08.717Z,0.72
2023-01-21T23:52:39.295Z,0.63
2023-01-21T23:55:07.633Z,0.62
2023-01-21T23:57:34.645Z,0.64
